sensor_id;sensor_type;location;lat;lon;timestamp;P1;durP1;ratioP1;P2;durP2;ratioP2
16669;SDS011;8448;52.034;5.158;2023-07-24T00:01:58;5.15;;;4.40;;
16669;SDS011;8448;52.034;5.158;2023-07-24T00:04:27;6.35;;;4.28;;
16669;SDS011;8448;52.034;5.158;2023-07-24T00:06:56;6.07;;;4.53;;
16669;SDS011;8448;52.034;5.158;2023-07-24T00:09:23;4.55;;;4.13;;
16669;SDS011;8448;52.034;5.158;2023-07-24T00:11:51;4.75;;;4.20;;
16669;SDS011;8448;52.034;5.158;2023-07-24T00:14:18;5.30;;;4.32;;
16669;SDS011;8448;52.034;5.158;2023-07-24T00:16:45;4.93;;;4.18;;
16669;SDS011;8448;52.034;5.158;2023-07-24T00:19:13;5.53;;;4.32;;
16669;SDS011;8448;52.034;5.158;2023-07-24T00:21:42;4.68;;;4.18;;
16669;SDS011;8448;52.034;5.158;2023-07-24T00:24:09;5.10;;;4.22;;
16669;SDS011;8448;52.034;5.158;2023-07-24T00:26:36;5.90;;;4.45;;
16669;SDS011;8448;52.034;5.158;2023-07-24T00:29:04;5.78;;;4.22;;
16669;SDS011;8448;52.034;5.158;2023-07-24T00:31:31;4.47;;;4.07;;
16669;SDS011;8448;52.034;5.158;2023-07-24T00:33:59;5.50;;;4.15;;
16669;SDS011;8448;52.034;5.158;2023-07-24T00:36:26;5.15;;;4.43;;
16669;SDS011;8448;52.034;5.158;2023-07-24T00:38:55;5.90;;;4.43;;
16669;SDS011;8448;52.034;5.158;2023-07-24T00:41:22;4.95;;;4.45;;
16669;SDS011;8448;52.034;5.158;2023-07-24T00:43:50;4.65;;;4.20;;
16669;SDS011;8448;52.034;5.158;2023-07-24T00:46:17;5.80;;;4.43;;
16669;SDS011;8448;52.034;5.158;2023-07-24T00:48:47;4.75;;;4.15;;
16669;SDS011;8448;52.034;5.158;2023-07-24T00:51:15;4.75;;;4.20;;
16669;SDS011;8448;52.034;5.158;2023-07-24T00:53:42;4.82;;;4.25;;
16669;SDS011;8448;52.034;5.158;2023-07-24T00:56:14;5.50;;;4.55;;
16669;SDS011;8448;52.034;5.158;2023-07-24T00:58:41;5.18;;;4.47;;
16669;SDS011;8448;52.034;5.158;2023-07-24T01:01:09;4.90;;;4.13;;
16669;SDS011;8448;52.034;5.158;2023-07-24T01:03:37;5.13;;;4.45;;
16669;SDS011;8448;52.034;5.158;2023-07-24T01:06:05;4.80;;;4.30;;
16669;SDS011;8448;52.034;5.158;2023-07-24T01:08:33;4.75;;;4.00;;
16669;SDS011;8448;52.034;5.158;2023-07-24T01:11:02;6.07;;;4.60;;
16669;SDS011;8448;52.034;5.158;2023-07-24T01:13:36;5.05;;;4.55;;
16669;SDS011;8448;52.034;5.158;2023-07-24T01:16:07;4.53;;;4.07;;
16669;SDS011;8448;52.034;5.158;2023-07-24T01:18:36;4.57;;;4.18;;
16669;SDS011;8448;52.034;5.158;2023-07-24T01:21:06;4.70;;;3.90;;
16669;SDS011;8448;52.034;5.158;2023-07-24T01:23:38;5.30;;;4.40;;
16669;SDS011;8448;52.034;5.158;2023-07-24T01:26:19;4.82;;;4.30;;
16669;SDS011;8448;52.034;5.158;2023-07-24T01:28:50;4.78;;;4.00;;
16669;SDS011;8448;52.034;5.158;2023-07-24T01:31:20;5.60;;;4.10;;
16669;SDS011;8448;52.034;5.158;2023-07-24T01:33:47;5.32;;;4.03;;
16669;SDS011;8448;52.034;5.158;2023-07-24T01:36:16;5.07;;;3.95;;
16669;SDS011;8448;52.034;5.158;2023-07-24T01:38:45;4.65;;;3.88;;
16669;SDS011;8448;52.034;5.158;2023-07-24T01:41:14;5.88;;;3.92;;
16669;SDS011;8448;52.034;5.158;2023-07-24T01:43:44;5.70;;;4.75;;
16669;SDS011;8448;52.034;5.158;2023-07-24T01:46:11;6.32;;;4.88;;
16669;SDS011;8448;52.034;5.158;2023-07-24T01:48:39;5.45;;;4.55;;
16669;SDS011;8448;52.034;5.158;2023-07-24T01:51:09;5.28;;;4.78;;
16669;SDS011;8448;52.034;5.158;2023-07-24T01:53:36;6.30;;;4.82;;
16669;SDS011;8448;52.034;5.158;2023-07-24T01:56:04;5.00;;;4.15;;
16669;SDS011;8448;52.034;5.158;2023-07-24T01:58:31;4.85;;;4.18;;
16669;SDS011;8448;52.034;5.158;2023-07-24T02:01:00;5.40;;;4.45;;
16669;SDS011;8448;52.034;5.158;2023-07-24T02:03:28;6.18;;;4.10;;
16669;SDS011;8448;52.034;5.158;2023-07-24T02:05:55;5.82;;;4.50;;
16669;SDS011;8448;52.034;5.158;2023-07-24T02:08:23;6.53;;;4.30;;
16669;SDS011;8448;52.034;5.158;2023-07-24T02:10:50;6.30;;;4.88;;
16669;SDS011;8448;52.034;5.158;2023-07-24T02:13:18;4.68;;;4.18;;
16669;SDS011;8448;52.034;5.158;2023-07-24T02:15:48;6.03;;;4.38;;
16669;SDS011;8448;52.034;5.158;2023-07-24T02:18:18;5.28;;;4.68;;
16669;SDS011;8448;52.034;5.158;2023-07-24T02:20:48;6.57;;;5.18;;
16669;SDS011;8448;52.034;5.158;2023-07-24T02:23:16;7.32;;;4.82;;
16669;SDS011;8448;52.034;5.158;2023-07-24T02:25:44;6.88;;;5.25;;
16669;SDS011;8448;52.034;5.158;2023-07-24T02:28:11;5.28;;;4.68;;
16669;SDS011;8448;52.034;5.158;2023-07-24T02:30:38;5.07;;;4.32;;
16669;SDS011;8448;52.034;5.158;2023-07-24T02:33:06;5.40;;;4.82;;
16669;SDS011;8448;52.034;5.158;2023-07-24T02:35:39;7.30;;;5.10;;
16669;SDS011;8448;52.034;5.158;2023-07-24T02:38:06;6.07;;;4.82;;
16669;SDS011;8448;52.034;5.158;2023-07-24T02:40:35;8.18;;;5.25;;
16669;SDS011;8448;52.034;5.158;2023-07-24T02:43:02;5.93;;;4.78;;
16669;SDS011;8448;52.034;5.158;2023-07-24T02:45:33;5.90;;;4.85;;
16669;SDS011;8448;52.034;5.158;2023-07-24T02:48:00;6.18;;;5.13;;
16669;SDS011;8448;52.034;5.158;2023-07-24T02:50:28;5.90;;;4.78;;
16669;SDS011;8448;52.034;5.158;2023-07-24T02:52:57;6.32;;;4.43;;
16669;SDS011;8448;52.034;5.158;2023-07-24T02:55:25;6.32;;;4.97;;
16669;SDS011;8448;52.034;5.158;2023-07-24T02:57:52;6.38;;;4.68;;
16669;SDS011;8448;52.034;5.158;2023-07-24T03:00:20;5.38;;;4.70;;
16669;SDS011;8448;52.034;5.158;2023-07-24T03:02:48;6.03;;;4.60;;
16669;SDS011;8448;52.034;5.158;2023-07-24T03:05:15;6.00;;;4.90;;
16669;SDS011;8448;52.034;5.158;2023-07-24T03:07:43;7.05;;;4.80;;
16669;SDS011;8448;52.034;5.158;2023-07-24T03:10:12;6.15;;;5.53;;
16669;SDS011;8448;52.034;5.158;2023-07-24T03:12:39;6.85;;;5.43;;
16669;SDS011;8448;52.034;5.158;2023-07-24T03:15:07;5.22;;;4.72;;
16669;SDS011;8448;52.034;5.158;2023-07-24T03:17:35;6.25;;;4.70;;
16669;SDS011;8448;52.034;5.158;2023-07-24T03:20:07;5.88;;;5.00;;
16669;SDS011;8448;52.034;5.158;2023-07-24T03:22:35;7.97;;;5.55;;
16669;SDS011;8448;52.034;5.158;2023-07-24T03:25:03;6.60;;;5.40;;
16669;SDS011;8448;52.034;5.158;2023-07-24T03:27:32;6.18;;;5.32;;
16669;SDS011;8448;52.034;5.158;2023-07-24T03:30:00;6.82;;;5.60;;
16669;SDS011;8448;52.034;5.158;2023-07-24T03:32:27;6.05;;;5.10;;
16669;SDS011;8448;52.034;5.158;2023-07-24T03:34:55;6.03;;;5.03;;
16669;SDS011;8448;52.034;5.158;2023-07-24T03:37:22;5.82;;;5.30;;
16669;SDS011;8448;52.034;5.158;2023-07-24T03:39:50;7.32;;;5.47;;
16669;SDS011;8448;52.034;5.158;2023-07-24T03:42:24;9.38;;;5.50;;
16669;SDS011;8448;52.034;5.158;2023-07-24T03:44:53;7.72;;;5.40;;
16669;SDS011;8448;52.034;5.158;2023-07-24T03:47:21;7.68;;;5.03;;
16669;SDS011;8448;52.034;5.158;2023-07-24T03:49:49;8.90;;;5.75;;
16669;SDS011;8448;52.034;5.158;2023-07-24T03:52:17;6.07;;;5.03;;
16669;SDS011;8448;52.034;5.158;2023-07-24T03:54:44;8.77;;;5.80;;
16669;SDS011;8448;52.034;5.158;2023-07-24T03:57:12;7.03;;;5.85;;
16669;SDS011;8448;52.034;5.158;2023-07-24T03:59:39;7.15;;;5.53;;
16669;SDS011;8448;52.034;5.158;2023-07-24T04:02:08;6.50;;;5.70;;
16669;SDS011;8448;52.034;5.158;2023-07-24T04:04:36;7.95;;;5.47;;
16669;SDS011;8448;52.034;5.158;2023-07-24T04:07:03;6.25;;;5.38;;
16669;SDS011;8448;52.034;5.158;2023-07-24T04:09:31;7.47;;;5.82;;
16669;SDS011;8448;52.034;5.158;2023-07-24T04:11:58;7.88;;;6.35;;
16669;SDS011;8448;52.034;5.158;2023-07-24T04:14:26;7.70;;;5.43;;
16669;SDS011;8448;52.034;5.158;2023-07-24T04:16:53;8.93;;;5.78;;
16669;SDS011;8448;52.034;5.158;2023-07-24T04:19:22;10.75;;;6.20;;
16669;SDS011;8448;52.034;5.158;2023-07-24T04:21:50;8.57;;;5.88;;
16669;SDS011;8448;52.034;5.158;2023-07-24T04:24:19;8.30;;;5.90;;
16669;SDS011;8448;52.034;5.158;2023-07-24T04:26:46;8.63;;;6.13;;
16669;SDS011;8448;52.034;5.158;2023-07-24T04:29:14;7.50;;;5.72;;
16669;SDS011;8448;52.034;5.158;2023-07-24T04:31:41;6.93;;;5.72;;
16669;SDS011;8448;52.034;5.158;2023-07-24T04:34:08;9.35;;;6.25;;
16669;SDS011;8448;52.034;5.158;2023-07-24T04:36:37;8.77;;;6.70;;
16669;SDS011;8448;52.034;5.158;2023-07-24T04:39:05;8.40;;;6.18;;
16669;SDS011;8448;52.034;5.158;2023-07-24T04:41:32;8.68;;;6.60;;
16669;SDS011;8448;52.034;5.158;2023-07-24T04:44:00;9.75;;;6.82;;
16669;SDS011;8448;52.034;5.158;2023-07-24T04:46:27;8.00;;;6.22;;
16669;SDS011;8448;52.034;5.158;2023-07-24T04:48:54;8.63;;;6.40;;
16669;SDS011;8448;52.034;5.158;2023-07-24T04:51:22;10.38;;;6.70;;
16669;SDS011;8448;52.034;5.158;2023-07-24T04:53:51;9.63;;;6.78;;
16669;SDS011;8448;52.034;5.158;2023-07-24T04:56:19;10.20;;;6.20;;
16669;SDS011;8448;52.034;5.158;2023-07-24T04:58:47;8.02;;;6.32;;
16669;SDS011;8448;52.034;5.158;2023-07-24T05:01:14;8.32;;;6.80;;
16669;SDS011;8448;52.034;5.158;2023-07-24T05:03:42;9.15;;;6.35;;
16669;SDS011;8448;52.034;5.158;2023-07-24T05:06:09;11.02;;;6.63;;
16669;SDS011;8448;52.034;5.158;2023-07-24T05:08:36;8.88;;;6.47;;
16669;SDS011;8448;52.034;5.158;2023-07-24T05:11:05;10.25;;;6.88;;
16669;SDS011;8448;52.034;5.158;2023-07-24T05:13:32;12.23;;;7.32;;
16669;SDS011;8448;52.034;5.158;2023-07-24T05:16:00;9.38;;;6.65;;
16669;SDS011;8448;52.034;5.158;2023-07-24T05:18:27;11.70;;;7.30;;
16669;SDS011;8448;52.034;5.158;2023-07-24T05:20:55;8.98;;;6.68;;
16669;SDS011;8448;52.034;5.158;2023-07-24T05:23:22;10.05;;;6.93;;
16669;SDS011;8448;52.034;5.158;2023-07-24T05:25:55;7.47;;;5.93;;
16669;SDS011;8448;52.034;5.158;2023-07-24T05:28:25;9.18;;;6.78;;
16669;SDS011;8448;52.034;5.158;2023-07-24T05:30:52;13.20;;;7.40;;
16669;SDS011;8448;52.034;5.158;2023-07-24T05:33:20;10.68;;;7.43;;
16669;SDS011;8448;52.034;5.158;2023-07-24T05:35:48;10.32;;;7.05;;
16669;SDS011;8448;52.034;5.158;2023-07-24T05:38:15;10.30;;;6.53;;
16669;SDS011;8448;52.034;5.158;2023-07-24T05:41:08;11.32;;;7.00;;
16669;SDS011;8448;52.034;5.158;2023-07-24T05:43:37;10.02;;;6.78;;
16669;SDS011;8448;52.034;5.158;2023-07-24T05:46:04;10.80;;;7.40;;
16669;SDS011;8448;52.034;5.158;2023-07-24T05:48:32;8.98;;;7.03;;
16669;SDS011;8448;52.034;5.158;2023-07-24T05:50:59;11.07;;;7.43;;
16669;SDS011;8448;52.034;5.158;2023-07-24T05:53:26;11.35;;;7.65;;
16669;SDS011;8448;52.034;5.158;2023-07-24T05:55:57;13.50;;;7.40;;
16669;SDS011;8448;52.034;5.158;2023-07-24T05:58:25;12.43;;;7.57;;
16669;SDS011;8448;52.034;5.158;2023-07-24T06:00:54;10.27;;;7.32;;
16669;SDS011;8448;52.034;5.158;2023-07-24T06:03:22;11.25;;;7.03;;
16669;SDS011;8448;52.034;5.158;2023-07-24T06:05:53;9.88;;;6.70;;
16669;SDS011;8448;52.034;5.158;2023-07-24T06:08:20;10.48;;;7.20;;
16669;SDS011;8448;52.034;5.158;2023-07-24T06:10:48;11.45;;;7.25;;
16669;SDS011;8448;52.034;5.158;2023-07-24T06:13:15;10.52;;;7.28;;
16669;SDS011;8448;52.034;5.158;2023-07-24T06:15:43;11.55;;;6.90;;
16669;SDS011;8448;52.034;5.158;2023-07-24T06:18:12;11.68;;;7.10;;
16669;SDS011;8448;52.034;5.158;2023-07-24T06:20:39;10.45;;;7.00;;
16669;SDS011;8448;52.034;5.158;2023-07-24T06:23:06;11.60;;;7.13;;
16669;SDS011;8448;52.034;5.158;2023-07-24T06:25:34;8.18;;;6.45;;
16669;SDS011;8448;52.034;5.158;2023-07-24T06:28:01;12.35;;;7.32;;
16669;SDS011;8448;52.034;5.158;2023-07-24T06:30:29;11.75;;;7.25;;
16669;SDS011;8448;52.034;5.158;2023-07-24T06:32:56;10.77;;;6.57;;
16669;SDS011;8448;52.034;5.158;2023-07-24T06:35:25;10.70;;;7.55;;
16669;SDS011;8448;52.034;5.158;2023-07-24T06:37:52;13.75;;;7.63;;
16669;SDS011;8448;52.034;5.158;2023-07-24T06:40:20;12.05;;;7.20;;
16669;SDS011;8448;52.034;5.158;2023-07-24T06:42:47;10.45;;;7.28;;
16669;SDS011;8448;52.034;5.158;2023-07-24T06:45:14;13.20;;;7.00;;
16669;SDS011;8448;52.034;5.158;2023-07-24T06:47:42;10.18;;;7.15;;
16669;SDS011;8448;52.034;5.158;2023-07-24T06:50:09;11.60;;;6.97;;
16669;SDS011;8448;52.034;5.158;2023-07-24T06:52:38;10.27;;;6.75;;
16669;SDS011;8448;52.034;5.158;2023-07-24T06:55:06;10.45;;;6.85;;
16669;SDS011;8448;52.034;5.158;2023-07-24T06:57:34;10.13;;;6.53;;
16669;SDS011;8448;52.034;5.158;2023-07-24T07:00:01;10.50;;;7.10;;
16669;SDS011;8448;52.034;5.158;2023-07-24T07:02:29;10.68;;;6.88;;
16669;SDS011;8448;52.034;5.158;2023-07-24T07:04:56;12.00;;;7.50;;
16669;SDS011;8448;52.034;5.158;2023-07-24T07:07:24;10.57;;;7.45;;
16669;SDS011;8448;52.034;5.158;2023-07-24T07:09:52;12.05;;;7.72;;
16669;SDS011;8448;52.034;5.158;2023-07-24T07:12:20;10.20;;;7.13;;
16669;SDS011;8448;52.034;5.158;2023-07-24T07:14:47;14.00;;;7.20;;
16669;SDS011;8448;52.034;5.158;2023-07-24T07:17:15;8.57;;;6.78;;
16669;SDS011;8448;52.034;5.158;2023-07-24T07:19:42;10.23;;;7.25;;
16669;SDS011;8448;52.034;5.158;2023-07-24T07:22:09;10.57;;;6.93;;
16669;SDS011;8448;52.034;5.158;2023-07-24T07:24:37;9.43;;;7.47;;
16669;SDS011;8448;52.034;5.158;2023-07-24T07:27:06;10.32;;;6.93;;
16669;SDS011;8448;52.034;5.158;2023-07-24T07:29:33;9.23;;;7.00;;
16669;SDS011;8448;52.034;5.158;2023-07-24T07:32:01;9.25;;;7.00;;
16669;SDS011;8448;52.034;5.158;2023-07-24T07:34:28;9.75;;;6.78;;
16669;SDS011;8448;52.034;5.158;2023-07-24T07:36:56;9.00;;;5.93;;
16669;SDS011;8448;52.034;5.158;2023-07-24T07:39:23;8.65;;;6.18;;
16669;SDS011;8448;52.034;5.158;2023-07-24T07:41:51;9.25;;;6.88;;
16669;SDS011;8448;52.034;5.158;2023-07-24T07:44:20;8.80;;;7.03;;
16669;SDS011;8448;52.034;5.158;2023-07-24T07:46:47;11.43;;;7.35;;
16669;SDS011;8448;52.034;5.158;2023-07-24T07:49:14;9.90;;;6.82;;
16669;SDS011;8448;52.034;5.158;2023-07-24T07:51:42;10.73;;;6.40;;
16669;SDS011;8448;52.034;5.158;2023-07-24T07:54:09;8.55;;;6.22;;
16669;SDS011;8448;52.034;5.158;2023-07-24T07:56:37;11.85;;;6.60;;
16669;SDS011;8448;52.034;5.158;2023-07-24T07:59:04;9.02;;;6.68;;
16669;SDS011;8448;52.034;5.158;2023-07-24T08:01:35;10.88;;;6.25;;
16669;SDS011;8448;52.034;5.158;2023-07-24T08:04:04;9.23;;;6.18;;
16669;SDS011;8448;52.034;5.158;2023-07-24T08:06:32;7.95;;;6.00;;
16669;SDS011;8448;52.034;5.158;2023-07-24T08:08:59;9.02;;;6.03;;
16669;SDS011;8448;52.034;5.158;2023-07-24T08:11:27;8.85;;;5.95;;
16669;SDS011;8448;52.034;5.158;2023-07-24T08:13:54;7.57;;;5.80;;
16669;SDS011;8448;52.034;5.158;2023-07-24T08:16:21;8.95;;;6.65;;
16669;SDS011;8448;52.034;5.158;2023-07-24T08:18:50;10.38;;;7.25;;
16669;SDS011;8448;52.034;5.158;2023-07-24T08:21:18;8.93;;;7.00;;
16669;SDS011;8448;52.034;5.158;2023-07-24T08:23:45;9.88;;;7.00;;
16669;SDS011;8448;52.034;5.158;2023-07-24T08:26:13;8.93;;;6.47;;
16669;SDS011;8448;52.034;5.158;2023-07-24T08:28:40;11.07;;;6.95;;
16669;SDS011;8448;52.034;5.158;2023-07-24T08:31:08;10.15;;;7.22;;
16669;SDS011;8448;52.034;5.158;2023-07-24T08:33:35;10.23;;;6.60;;
16669;SDS011;8448;52.034;5.158;2023-07-24T08:36:05;9.13;;;6.70;;
16669;SDS011;8448;52.034;5.158;2023-07-24T08:38:36;9.65;;;6.78;;
16669;SDS011;8448;52.034;5.158;2023-07-24T08:41:04;9.75;;;7.57;;
16669;SDS011;8448;52.034;5.158;2023-07-24T08:43:32;9.90;;;7.07;;
16669;SDS011;8448;52.034;5.158;2023-07-24T08:46:01;11.80;;;7.95;;
16669;SDS011;8448;52.034;5.158;2023-07-24T08:48:30;8.38;;;7.15;;
16669;SDS011;8448;52.034;5.158;2023-07-24T08:51:01;10.75;;;7.00;;
16669;SDS011;8448;52.034;5.158;2023-07-24T08:53:30;12.38;;;6.85;;
16669;SDS011;8448;52.034;5.158;2023-07-24T08:56:00;8.55;;;6.68;;
16669;SDS011;8448;52.034;5.158;2023-07-24T08:58:29;7.78;;;6.22;;
16669;SDS011;8448;52.034;5.158;2023-07-24T09:00:57;10.20;;;6.30;;
16669;SDS011;8448;52.034;5.158;2023-07-24T09:03:26;9.05;;;7.03;;
16669;SDS011;8448;52.034;5.158;2023-07-24T09:05:54;11.07;;;7.30;;
16669;SDS011;8448;52.034;5.158;2023-07-24T09:08:28;11.82;;;8.65;;
16669;SDS011;8448;52.034;5.158;2023-07-24T09:10:58;12.75;;;7.95;;
16669;SDS011;8448;52.034;5.158;2023-07-24T09:13:25;8.95;;;7.65;;
16669;SDS011;8448;52.034;5.158;2023-07-24T09:15:53;11.63;;;8.32;;
16669;SDS011;8448;52.034;5.158;2023-07-24T09:18:21;11.98;;;8.13;;
16669;SDS011;8448;52.034;5.158;2023-07-24T09:20:49;10.88;;;7.90;;
16669;SDS011;8448;52.034;5.158;2023-07-24T09:23:25;11.10;;;8.23;;
16669;SDS011;8448;52.034;5.158;2023-07-24T09:25:54;14.18;;;8.38;;
16669;SDS011;8448;52.034;5.158;2023-07-24T09:28:22;8.38;;;7.18;;
16669;SDS011;8448;52.034;5.158;2023-07-24T09:30:53;8.13;;;7.20;;
16669;SDS011;8448;52.034;5.158;2023-07-24T09:33:21;11.98;;;7.80;;
16669;SDS011;8448;52.034;5.158;2023-07-24T09:35:59;10.98;;;7.00;;
16669;SDS011;8448;52.034;5.158;2023-07-24T09:38:27;8.38;;;6.68;;
16669;SDS011;8448;52.034;5.158;2023-07-24T09:41:00;10.60;;;7.03;;
16669;SDS011;8448;52.034;5.158;2023-07-24T09:43:29;9.60;;;7.22;;
16669;SDS011;8448;52.034;5.158;2023-07-24T09:46:00;10.07;;;7.50;;
16669;SDS011;8448;52.034;5.158;2023-07-24T09:48:28;8.57;;;6.15;;
16669;SDS011;8448;52.034;5.158;2023-07-24T09:50:56;8.68;;;6.63;;
16669;SDS011;8448;52.034;5.158;2023-07-24T09:53:31;9.43;;;5.90;;
16669;SDS011;8448;52.034;5.158;2023-07-24T09:56:02;10.15;;;6.75;;
16669;SDS011;8448;52.034;5.158;2023-07-24T09:58:32;11.25;;;6.85;;
16669;SDS011;8448;52.034;5.158;2023-07-24T10:01:01;7.68;;;5.95;;
16669;SDS011;8448;52.034;5.158;2023-07-24T10:03:31;8.48;;;5.82;;
16669;SDS011;8448;52.034;5.158;2023-07-24T10:05:59;9.43;;;6.35;;
16669;SDS011;8448;52.034;5.158;2023-07-24T10:08:27;9.68;;;5.97;;
16669;SDS011;8448;52.034;5.158;2023-07-24T10:10:54;7.68;;;5.75;;
16669;SDS011;8448;52.034;5.158;2023-07-24T10:13:25;9.13;;;6.00;;
16669;SDS011;8448;52.034;5.158;2023-07-24T10:15:53;7.53;;;5.80;;
16669;SDS011;8448;52.034;5.158;2023-07-24T10:18:25;7.80;;;5.50;;
16669;SDS011;8448;52.034;5.158;2023-07-24T10:21:00;8.43;;;6.20;;
16669;SDS011;8448;52.034;5.158;2023-07-24T10:23:28;9.07;;;6.20;;
16669;SDS011;8448;52.034;5.158;2023-07-24T10:26:01;8.57;;;5.80;;
16669;SDS011;8448;52.034;5.158;2023-07-24T10:28:32;9.07;;;6.22;;
16669;SDS011;8448;52.034;5.158;2023-07-24T10:31:03;7.75;;;6.28;;
16669;SDS011;8448;52.034;5.158;2023-07-24T10:33:34;6.75;;;5.18;;
16669;SDS011;8448;52.034;5.158;2023-07-24T10:36:04;7.85;;;5.80;;
16669;SDS011;8448;52.034;5.158;2023-07-24T10:38:36;6.72;;;5.55;;
16669;SDS011;8448;52.034;5.158;2023-07-24T10:41:05;7.63;;;6.15;;
16669;SDS011;8448;52.034;5.158;2023-07-24T10:43:41;9.43;;;5.60;;
16669;SDS011;8448;52.034;5.158;2023-07-24T10:46:09;8.30;;;6.00;;
16669;SDS011;8448;52.034;5.158;2023-07-24T10:48:37;7.65;;;6.25;;
16669;SDS011;8448;52.034;5.158;2023-07-24T10:51:08;10.13;;;6.38;;
16669;SDS011;8448;52.034;5.158;2023-07-24T10:53:40;7.10;;;5.65;;
16669;SDS011;8448;52.034;5.158;2023-07-24T10:56:10;9.68;;;6.50;;
16669;SDS011;8448;52.034;5.158;2023-07-24T10:58:37;9.32;;;6.63;;
16669;SDS011;8448;52.034;5.158;2023-07-24T11:01:06;9.52;;;6.13;;
16669;SDS011;8448;52.034;5.158;2023-07-24T11:03:36;11.00;;;7.25;;
16669;SDS011;8448;52.034;5.158;2023-07-24T11:06:03;8.38;;;6.57;;
16669;SDS011;8448;52.034;5.158;2023-07-24T11:08:31;10.23;;;7.18;;
16669;SDS011;8448;52.034;5.158;2023-07-24T11:11:01;7.65;;;6.18;;
16669;SDS011;8448;52.034;5.158;2023-07-24T11:13:29;11.57;;;8.15;;
16669;SDS011;8448;52.034;5.158;2023-07-24T11:15:57;10.75;;;7.30;;
16669;SDS011;8448;52.034;5.158;2023-07-24T11:18:32;11.45;;;8.02;;
16669;SDS011;8448;52.034;5.158;2023-07-24T11:21:11;11.25;;;8.05;;
16669;SDS011;8448;52.034;5.158;2023-07-24T11:23:44;8.55;;;6.47;;
16669;SDS011;8448;52.034;5.158;2023-07-24T11:26:12;9.95;;;6.28;;
16669;SDS011;8448;52.034;5.158;2023-07-24T11:28:41;8.55;;;5.72;;
16669;SDS011;8448;52.034;5.158;2023-07-24T11:31:09;7.90;;;5.38;;
16669;SDS011;8448;52.034;5.158;2023-07-24T11:33:38;8.75;;;5.15;;
16669;SDS011;8448;52.034;5.158;2023-07-24T11:36:06;5.75;;;5.07;;
16669;SDS011;8448;52.034;5.158;2023-07-24T11:38:34;6.55;;;5.28;;
16669;SDS011;8448;52.034;5.158;2023-07-24T11:41:04;8.10;;;5.53;;
16669;SDS011;8448;52.034;5.158;2023-07-24T11:43:31;9.57;;;5.90;;
16669;SDS011;8448;52.034;5.158;2023-07-24T11:45:59;8.48;;;5.90;;
16669;SDS011;8448;52.034;5.158;2023-07-24T11:48:26;8.43;;;5.80;;
16669;SDS011;8448;52.034;5.158;2023-07-24T11:50:55;7.55;;;5.60;;
16669;SDS011;8448;52.034;5.158;2023-07-24T11:53:25;7.22;;;5.45;;
16669;SDS011;8448;52.034;5.158;2023-07-24T11:55:54;8.00;;;5.45;;
16669;SDS011;8448;52.034;5.158;2023-07-24T11:58:25;8.40;;;5.90;;
16669;SDS011;8448;52.034;5.158;2023-07-24T12:00:53;6.90;;;5.32;;
16669;SDS011;8448;52.034;5.158;2023-07-24T12:03:20;8.40;;;6.57;;
16669;SDS011;8448;52.034;5.158;2023-07-24T12:05:49;8.00;;;6.00;;
16669;SDS011;8448;52.034;5.158;2023-07-24T12:08:20;6.43;;;5.65;;
16669;SDS011;8448;52.034;5.158;2023-07-24T12:10:57;7.65;;;5.97;;
16669;SDS011;8448;52.034;5.158;2023-07-24T12:13:24;7.10;;;4.85;;
16669;SDS011;8448;52.034;5.158;2023-07-24T12:15:52;7.72;;;5.20;;
16669;SDS011;8448;52.034;5.158;2023-07-24T12:18:20;8.30;;;5.75;;
16669;SDS011;8448;52.034;5.158;2023-07-24T12:20:47;8.30;;;5.22;;
16669;SDS011;8448;52.034;5.158;2023-07-24T12:23:14;7.82;;;5.20;;
16669;SDS011;8448;52.034;5.158;2023-07-24T12:25:43;11.25;;;6.63;;
16669;SDS011;8448;52.034;5.158;2023-07-24T12:28:11;9.57;;;6.97;;
16669;SDS011;8448;52.034;5.158;2023-07-24T12:30:38;8.40;;;6.40;;
16669;SDS011;8448;52.034;5.158;2023-07-24T12:33:06;9.98;;;7.60;;
16669;SDS011;8448;52.034;5.158;2023-07-24T12:35:33;8.52;;;6.22;;
16669;SDS011;8448;52.034;5.158;2023-07-24T12:38:01;8.15;;;6.75;;
16669;SDS011;8448;52.034;5.158;2023-07-24T12:40:28;7.65;;;5.93;;
16669;SDS011;8448;52.034;5.158;2023-07-24T12:42:58;7.95;;;6.15;;
16669;SDS011;8448;52.034;5.158;2023-07-24T12:45:26;11.43;;;6.70;;
16669;SDS011;8448;52.034;5.158;2023-07-24T12:47:53;10.73;;;6.78;;
16669;SDS011;8448;52.034;5.158;2023-07-24T12:50:21;7.93;;;6.85;;
16669;SDS011;8448;52.034;5.158;2023-07-24T12:52:49;7.63;;;6.53;;
16669;SDS011;8448;52.034;5.158;2023-07-24T12:55:17;7.35;;;5.88;;
16669;SDS011;8448;52.034;5.158;2023-07-24T12:57:44;8.93;;;6.65;;
16669;SDS011;8448;52.034;5.158;2023-07-24T13:00:13;9.90;;;6.03;;
16669;SDS011;8448;52.034;5.158;2023-07-24T13:02:41;12.52;;;7.28;;
16669;SDS011;8448;52.034;5.158;2023-07-24T13:05:09;9.15;;;6.78;;
16669;SDS011;8448;52.034;5.158;2023-07-24T13:07:36;10.02;;;7.25;;
16669;SDS011;8448;52.034;5.158;2023-07-24T13:10:04;13.52;;;8.63;;
16669;SDS011;8448;52.034;5.158;2023-07-24T13:12:32;9.95;;;7.72;;
16669;SDS011;8448;52.034;5.158;2023-07-24T13:15:00;12.38;;;9.10;;
16669;SDS011;8448;52.034;5.158;2023-07-24T13:17:28;9.95;;;7.70;;
16669;SDS011;8448;52.034;5.158;2023-07-24T13:19:56;10.13;;;6.95;;
16669;SDS011;8448;52.034;5.158;2023-07-24T13:22:23;11.90;;;8.15;;
16669;SDS011;8448;52.034;5.158;2023-07-24T13:24:51;11.77;;;8.73;;
16669;SDS011;8448;52.034;5.158;2023-07-24T13:27:18;12.15;;;8.60;;
16669;SDS011;8448;52.034;5.158;2023-07-24T13:29:45;12.18;;;8.90;;
16669;SDS011;8448;52.034;5.158;2023-07-24T13:32:13;16.08;;;8.88;;
16669;SDS011;8448;52.034;5.158;2023-07-24T13:34:42;10.15;;;7.88;;
16669;SDS011;8448;52.034;5.158;2023-07-24T13:37:09;10.90;;;8.20;;
16669;SDS011;8448;52.034;5.158;2023-07-24T13:39:37;10.93;;;7.07;;
16669;SDS011;8448;52.034;5.158;2023-07-24T13:42:05;8.00;;;7.20;;
16669;SDS011;8448;52.034;5.158;2023-07-24T13:44:32;9.32;;;7.10;;
16669;SDS011;8448;52.034;5.158;2023-07-24T13:47:00;7.60;;;6.68;;
16669;SDS011;8448;52.034;5.158;2023-07-24T13:49:27;7.95;;;6.40;;
16669;SDS011;8448;52.034;5.158;2023-07-24T13:51:56;7.57;;;6.47;;
16669;SDS011;8448;52.034;5.158;2023-07-24T13:54:23;10.85;;;6.78;;
16669;SDS011;8448;52.034;5.158;2023-07-24T13:56:51;6.85;;;5.88;;
16669;SDS011;8448;52.034;5.158;2023-07-24T13:59:18;7.40;;;6.00;;
16669;SDS011;8448;52.034;5.158;2023-07-24T14:01:46;9.38;;;6.88;;
16669;SDS011;8448;52.034;5.158;2023-07-24T14:04:13;8.10;;;6.50;;
16669;SDS011;8448;52.034;5.158;2023-07-24T14:06:40;7.35;;;5.63;;
16669;SDS011;8448;52.034;5.158;2023-07-24T14:09:09;6.00;;;3.95;;
16669;SDS011;8448;52.034;5.158;2023-07-24T14:11:37;5.47;;;3.40;;
16669;SDS011;8448;52.034;5.158;2023-07-24T14:14:04;4.10;;;3.17;;
16669;SDS011;8448;52.034;5.158;2023-07-24T14:16:32;6.22;;;3.10;;
16669;SDS011;8448;52.034;5.158;2023-07-24T14:19:05;4.13;;;2.80;;
16669;SDS011;8448;52.034;5.158;2023-07-24T14:21:33;8.02;;;3.53;;
16669;SDS011;8448;52.034;5.158;2023-07-24T14:24:00;4.38;;;2.65;;
16669;SDS011;8448;52.034;5.158;2023-07-24T14:26:29;3.75;;;2.45;;
16669;SDS011;8448;52.034;5.158;2023-07-24T14:29:01;4.88;;;2.38;;
16669;SDS011;8448;52.034;5.158;2023-07-24T14:31:28;5.82;;;2.38;;
16669;SDS011;8448;52.034;5.158;2023-07-24T14:33:56;6.57;;;2.67;;
16669;SDS011;8448;52.034;5.158;2023-07-24T14:36:23;4.78;;;2.65;;
16669;SDS011;8448;52.034;5.158;2023-07-24T14:38:53;3.95;;;2.33;;
16669;SDS011;8448;52.034;5.158;2023-07-24T14:41:20;3.55;;;2.22;;
16669;SDS011;8448;52.034;5.158;2023-07-24T14:43:49;5.15;;;2.38;;
16669;SDS011;8448;52.034;5.158;2023-07-24T14:46:18;2.70;;;1.92;;
16669;SDS011;8448;52.034;5.158;2023-07-24T14:48:45;4.15;;;2.30;;
16669;SDS011;8448;52.034;5.158;2023-07-24T14:51:13;3.35;;;2.00;;
16669;SDS011;8448;52.034;5.158;2023-07-24T14:53:40;3.08;;;1.90;;
16669;SDS011;8448;52.034;5.158;2023-07-24T14:56:08;2.95;;;1.70;;
16669;SDS011;8448;52.034;5.158;2023-07-24T14:58:35;2.63;;;1.58;;
16669;SDS011;8448;52.034;5.158;2023-07-24T15:01:04;5.72;;;1.83;;
16669;SDS011;8448;52.034;5.158;2023-07-24T15:03:32;4.28;;;1.80;;
16669;SDS011;8448;52.034;5.158;2023-07-24T15:05:59;4.28;;;1.90;;